sensor_id;sensor_type;location;lat;lon;timestamp;pressure;altitude;pressure_sealevel;temperature;humidity
20003;BME280;10162;41.600;23.806;2023-04-21T00:00:29;94775.09;;;8.02;100.00
20003;BME280;10162;41.600;23.806;2023-04-21T00:02:55;94763.75;;;7.88;100.00
20003;BME280;10162;41.600;23.806;2023-04-21T00:05:21;94767.28;;;8.02;100.00
20003;BME280;10162;41.600;23.806;2023-04-21T00:07:46;94761.78;;;7.91;100.00
20003;BME280;10162;41.600;23.806;2023-04-21T00:10:23;94780.59;;;8.14;100.00
20003;BME280;10162;41.600;23.806;2023-04-21T00:12:50;94779.56;;;7.87;100.00
20003;BME280;10162;41.600;23.806;2023-04-21T00:15:16;94774.84;;;7.55;100.00
20003;BME280;10162;41.600;23.806;2023-04-21T00:17:42;94771.09;;;7.42;100.00
20003;BME280;10162;41.600;23.806;2023-04-21T00:20:08;94779.50;;;7.59;100.00
20003;BME280;10162;41.600;23.806;2023-04-21T00:22:37;94756.53;;;7.27;100.00
20003;BME280;10162;41.600;23.806;2023-04-21T00:25:03;94775.25;;;7.37;100.00
20003;BME280;10162;41.600;23.806;2023-04-21T00:27:30;94786.41;;;7.52;100.00
20003;BME280;10162;41.600;23.806;2023-04-21T00:29:56;94781.25;;;7.37;100.00
20003;BME280;10162;41.600;23.806;2023-04-21T00:32:22;94770.19;;;7.29;100.00
20003;BME280;10162;41.600;23.806;2023-04-21T00:34:49;94781.56;;;7.13;100.00
20003;BME280;10162;41.600;23.806;2023-04-21T00:37:15;94762.44;;;6.99;100.00
20003;BME280;10162;41.600;23.806;2023-04-21T00:40:05;94769.13;;;7.09;100.00
20003;BME280;10162;41.600;23.806;2023-04-21T00:42:32;94744.31;;;7.06;100.00
20003;BME280;10162;41.600;23.806;2023-04-21T00:44:59;94754.72;;;6.91;100.00
20003;BME280;10162;41.600;23.806;2023-04-21T00:47:25;94740.41;;;6.81;100.00
20003;BME280;10162;41.600;23.806;2023-04-21T00:53:13;94765.63;;;7.01;100.00
20003;BME280;10162;41.600;23.806;2023-04-21T00:55:40;94743.97;;;6.94;100.00
20003;BME280;10162;41.600;23.806;2023-04-21T00:58:07;94741.09;;;7.04;100.00
20003;BME280;10162;41.600;23.806;2023-04-21T01:03:48;94756.00;;;6.81;100.00
20003;BME280;10162;41.600;23.806;2023-04-21T01:06:14;94743.34;;;6.34;100.00
20003;BME280;10162;41.600;23.806;2023-04-21T01:08:41;94752.97;;;6.48;100.00
20003;BME280;10162;41.600;23.806;2023-04-21T01:11:15;94746.59;;;6.50;100.00
20003;BME280;10162;41.600;23.806;2023-04-21T01:13:41;94736.63;;;6.39;100.00
20003;BME280;10162;41.600;23.806;2023-04-21T01:16:15;94762.16;;;6.50;100.00
20003;BME280;10162;41.600;23.806;2023-04-21T01:18:41;94752.13;;;6.33;100.00
20003;BME280;10162;41.600;23.806;2023-04-21T01:25:01;94752.41;;;6.52;100.00
20003;BME280;10162;41.600;23.806;2023-04-21T01:27:28;94762.81;;;6.38;100.00
20003;BME280;10162;41.600;23.806;2023-04-21T01:29:58;94752.97;;;6.48;100.00
20003;BME280;10162;41.600;23.806;2023-04-21T01:32:28;94750.97;;;6.79;100.00
20003;BME280;10162;41.600;23.806;2023-04-21T01:34:55;94756.91;;;6.58;100.00
20003;BME280;10162;41.600;23.806;2023-04-21T01:37:25;94759.47;;;6.29;100.00
20003;BME280;10162;41.600;23.806;2023-04-21T01:40:07;94763.09;;;6.05;100.00
20003;BME280;10162;41.600;23.806;2023-04-21T01:42:37;94761.09;;;6.30;100.00
20003;BME280;10162;41.600;23.806;2023-04-21T01:45:05;94739.13;;;6.18;100.00
20003;BME280;10162;41.600;23.806;2023-04-21T01:47:31;94763.84;;;6.14;100.00
20003;BME280;10162;41.600;23.806;2023-04-21T01:50:34;94767.13;;;6.60;100.00
20003;BME280;10162;41.600;23.806;2023-04-21T01:53:03;94749.19;;;6.36;100.00
20003;BME280;10162;41.600;23.806;2023-04-21T01:55:32;94754.69;;;6.03;100.00
20003;BME280;10162;41.600;23.806;2023-04-21T01:58:01;94745.81;;;5.98;100.00
20003;BME280;10162;41.600;23.806;2023-04-21T02:00:48;94770.69;;;5.84;100.00
20003;BME280;10162;41.600;23.806;2023-04-21T02:03:14;94754.50;;;6.05;100.00
20003;BME280;10162;41.600;23.806;2023-04-21T02:05:40;94740.31;;;5.70;100.00
20003;BME280;10162;41.600;23.806;2023-04-21T02:08:06;94754.34;;;5.61;100.00
20003;BME280;10162;41.600;23.806;2023-04-21T02:11:08;94764.53;;;5.85;100.00
20003;BME280;10162;41.600;23.806;2023-04-21T02:13:34;94752.97;;;5.73;100.00
20003;BME280;10162;41.600;23.806;2023-04-21T02:16:00;94745.19;;;5.73;100.00
20003;BME280;10162;41.600;23.806;2023-04-21T02:18:26;94749.28;;;5.67;100.00
20003;BME280;10162;41.600;23.806;2023-04-21T02:24:02;94747.53;;;5.82;100.00
20003;BME280;10162;41.600;23.806;2023-04-21T02:26:28;94754.00;;;6.24;100.00
20003;BME280;10162;41.600;23.806;2023-04-21T02:28:54;94748.00;;;5.86;100.00
20003;BME280;10162;41.600;23.806;2023-04-21T02:31:43;94760.50;;;6.05;100.00
20003;BME280;10162;41.600;23.806;2023-04-21T02:34:09;94744.81;;;5.99;100.00
20003;BME280;10162;41.600;23.806;2023-04-21T02:36:37;94731.53;;;5.33;100.00
20003;BME280;10162;41.600;23.806;2023-04-21T02:39:02;94736.56;;;5.58;100.00
20003;BME280;10162;41.600;23.806;2023-04-21T02:41:29;94748.63;;;5.65;100.00
20003;BME280;10162;41.600;23.806;2023-04-21T02:43:55;94760.16;;;5.86;100.00
20003;BME280;10162;41.600;23.806;2023-04-21T02:46:21;94746.91;;;5.80;100.00
20003;BME280;10162;41.600;23.806;2023-04-21T02:48:47;94767.03;;;5.56;100.00
20003;BME280;10162;41.600;23.806;2023-04-21T02:51:16;94739.53;;;5.24;100.00
20003;BME280;10162;41.600;23.806;2023-04-21T02:53:43;94762.50;;;5.27;100.00
20003;BME280;10162;41.600;23.806;2023-04-21T02:56:08;94751.03;;;5.21;100.00
20003;BME280;10162;41.600;23.806;2023-04-21T02:58:35;94740.50;;;5.23;100.00
20003;BME280;10162;41.600;23.806;2023-04-21T03:01:23;94763.44;;;5.79;100.00
20003;BME280;10162;41.600;23.806;2023-04-21T03:03:50;94756.81;;;5.77;100.00
20003;BME280;10162;41.600;23.806;2023-04-21T03:06:15;94765.56;;;5.53;100.00
20003;BME280;10162;41.600;23.806;2023-04-21T03:08:41;94743.25;;;5.21;100.00
20003;BME280;10162;41.600;23.806;2023-04-21T03:11:14;94765.00;;;5.43;100.00
20003;BME280;10162;41.600;23.806;2023-04-21T03:13:41;94744.00;;;5.30;100.00
20003;BME280;10162;41.600;23.806;2023-04-21T03:16:07;94759.06;;;5.34;100.00
20003;BME280;10162;41.600;23.806;2023-04-21T03:18:34;94768.63;;;5.34;100.00
20003;BME280;10162;41.600;23.806;2023-04-21T03:24:06;94762.75;;;5.40;100.00
20003;BME280;10162;41.600;23.806;2023-04-21T03:26:32;94775.19;;;5.45;100.00
20003;BME280;10162;41.600;23.806;2023-04-21T03:28:58;94772.19;;;5.02;100.00
20003;BME280;10162;41.600;23.806;2023-04-21T03:35:18;94770.38;;;4.72;100.00
20003;BME280;10162;41.600;23.806;2023-04-21T03:37:44;94771.81;;;5.13;100.00
20003;BME280;10162;41.600;23.806;2023-04-21T03:40:27;94772.13;;;5.18;100.00
20003;BME280;10162;41.600;23.806;2023-04-21T03:42:53;94765.78;;;5.21;100.00
20003;BME280;10162;41.600;23.806;2023-04-21T03:45:19;94765.66;;;4.75;100.00
20003;BME280;10162;41.600;23.806;2023-04-21T03:47:52;94777.75;;;4.91;100.00
20003;BME280;10162;41.600;23.806;2023-04-21T03:53:35;94783.50;;;5.09;100.00
20003;BME280;10162;41.600;23.806;2023-04-21T03:56:00;94778.38;;;5.01;100.00
20003;BME280;10162;41.600;23.806;2023-04-21T03:58:26;94774.34;;;4.90;100.00
20003;BME280;10162;41.600;23.806;2023-04-21T04:01:08;94784.75;;;5.13;100.00
20003;BME280;10162;41.600;23.806;2023-04-21T04:03:34;94780.53;;;5.43;100.00
20003;BME280;10162;41.600;23.806;2023-04-21T04:06:00;94784.75;;;5.44;100.00
20003;BME280;10162;41.600;23.806;2023-04-21T04:08:30;94773.25;;;5.16;100.00
20003;BME280;10162;41.600;23.806;2023-04-21T04:11:10;94775.34;;;4.89;100.00
20003;BME280;10162;41.600;23.806;2023-04-21T04:13:35;94768.75;;;5.40;100.00
20003;BME280;10162;41.600;23.806;2023-04-21T04:16:01;94780.22;;;5.46;100.00
20003;BME280;10162;41.600;23.806;2023-04-21T04:18:29;94775.78;;;5.55;100.00
20003;BME280;10162;41.600;23.806;2023-04-21T04:20:54;94793.81;;;5.71;100.00
20003;BME280;10162;41.600;23.806;2023-04-21T04:23:21;94800.47;;;5.43;100.00
20003;BME280;10162;41.600;23.806;2023-04-21T04:25:47;94786.63;;;5.27;100.00
20003;BME280;10162;41.600;23.806;2023-04-21T04:28:15;94803.16;;;5.80;100.00
20003;BME280;10162;41.600;23.806;2023-04-21T04:30:54;94822.50;;;6.00;100.00
20003;BME280;10162;41.600;23.806;2023-04-21T04:33:20;94809.69;;;5.99;100.00
20003;BME280;10162;41.600;23.806;2023-04-21T04:35:45;94811.31;;;6.00;100.00
20003;BME280;10162;41.600;23.806;2023-04-21T04:38:12;94812.00;;;5.94;100.00
20003;BME280;10162;41.600;23.806;2023-04-21T04:40:56;94824.25;;;6.22;100.00
20003;BME280;10162;41.600;23.806;2023-04-21T04:43:26;94818.50;;;6.64;100.00
20003;BME280;10162;41.600;23.806;2023-04-21T04:45:52;94801.50;;;6.77;100.00
20003;BME280;10162;41.600;23.806;2023-04-21T04:48:19;94817.34;;;6.67;100.00
20003;BME280;10162;41.600;23.806;2023-04-21T04:50:55;94830.16;;;7.13;100.00
20003;BME280;10162;41.600;23.806;2023-04-21T04:53:22;94807.41;;;7.00;100.00
20003;BME280;10162;41.600;23.806;2023-04-21T04:55:48;94818.84;;;7.20;100.00
20003;BME280;10162;41.600;23.806;2023-04-21T04:58:14;94819.84;;;7.34;100.00
20003;BME280;10162;41.600;23.806;2023-04-21T05:01:13;94817.63;;;7.52;100.00
20003;BME280;10162;41.600;23.806;2023-04-21T05:03:40;94817.22;;;7.70;100.00
20003;BME280;10162;41.600;23.806;2023-04-21T05:06:06;94806.06;;;7.76;100.00
20003;BME280;10162;41.600;23.806;2023-04-21T05:08:44;94812.47;;;7.95;100.00
20003;BME280;10162;41.600;23.806;2023-04-21T05:11:21;94818.47;;;7.95;100.00
20003;BME280;10162;41.600;23.806;2023-04-21T05:13:47;94820.72;;;8.19;100.00
20003;BME280;10162;41.600;23.806;2023-04-21T05:16:13;94819.25;;;8.59;100.00
20003;BME280;10162;41.600;23.806;2023-04-21T05:18:39;94805.44;;;8.38;100.00
20003;BME280;10162;41.600;23.806;2023-04-21T05:24:12;94823.88;;;8.64;100.00
20003;BME280;10162;41.600;23.806;2023-04-21T05:26:38;94802.94;;;8.79;100.00
20003;BME280;10162;41.600;23.806;2023-04-21T05:29:05;94809.53;;;9.09;100.00
20003;BME280;10162;41.600;23.806;2023-04-21T05:31:41;94795.50;;;8.76;100.00
20003;BME280;10162;41.600;23.806;2023-04-21T05:34:07;94805.41;;;8.87;100.00
20003;BME280;10162;41.600;23.806;2023-04-21T05:36:32;94823.34;;;9.03;100.00
20003;BME280;10162;41.600;23.806;2023-04-21T05:38:59;94801.84;;;9.01;100.00
20003;BME280;10162;41.600;23.806;2023-04-21T05:44:24;94814.16;;;9.13;100.00
20003;BME280;10162;41.600;23.806;2023-04-21T05:46:50;94794.31;;;9.19;100.00
20003;BME280;10162;41.600;23.806;2023-04-21T05:49:16;94823.94;;;9.52;100.00
20003;BME280;10162;41.600;23.806;2023-04-21T05:51:45;94803.44;;;9.43;100.00
20003;BME280;10162;41.600;23.806;2023-04-21T05:54:43;94816.34;;;9.51;100.00
20003;BME280;10162;41.600;23.806;2023-04-21T05:57:10;94802.31;;;9.65;100.00
20003;BME280;10162;41.600;23.806;2023-04-21T05:59:36;94803.06;;;9.52;100.00
20003;BME280;10162;41.600;23.806;2023-04-21T06:02:03;94797.56;;;9.95;100.00
20003;BME280;10162;41.600;23.806;2023-04-21T06:04:29;94789.75;;;10.15;100.00
20003;BME280;10162;41.600;23.806;2023-04-21T06:06:55;94802.88;;;10.41;100.00
20003;BME280;10162;41.600;23.806;2023-04-21T06:09:21;94802.41;;;10.11;100.00
20003;BME280;10162;41.600;23.806;2023-04-21T06:15:03;94809.06;;;10.60;100.00
20003;BME280;10162;41.600;23.806;2023-04-21T06:17:29;94799.03;;;10.57;100.00
20003;BME280;10162;41.600;23.806;2023-04-21T06:19:55;94811.03;;;10.97;100.00
20003;BME280;10162;41.600;23.806;2023-04-21T06:22:22;94796.22;;;10.52;100.00
20003;BME280;10162;41.600;23.806;2023-04-21T06:24:48;94817.53;;;10.68;100.00
20003;BME280;10162;41.600;23.806;2023-04-21T06:27:14;94817.69;;;10.93;100.00
20003;BME280;10162;41.600;23.806;2023-04-21T06:29:41;94814.59;;;11.23;100.00
20003;BME280;10162;41.600;23.806;2023-04-21T06:32:07;94791.19;;;11.41;100.00
20003;BME280;10162;41.600;23.806;2023-04-21T06:34:34;94770.34;;;11.21;99.01
20003;BME280;10162;41.600;23.806;2023-04-21T06:36:59;94777.09;;;11.42;96.63
20003;BME280;10162;41.600;23.806;2023-04-21T06:39:26;94784.91;;;11.48;95.37
20003;BME280;10162;41.600;23.806;2023-04-21T06:41:54;94802.75;;;11.65;92.71
20003;BME280;10162;41.600;23.806;2023-04-21T06:44:21;94766.22;;;11.83;91.43
20003;BME280;10162;41.600;23.806;2023-04-21T06:46:47;94786.50;;;12.25;88.47
20003;BME280;10162;41.600;23.806;2023-04-21T06:49:13;94781.72;;;12.16;87.64
20003;BME280;10162;41.600;23.806;2023-04-21T06:51:38;94792.53;;;12.26;88.66
20003;BME280;10162;41.600;23.806;2023-04-21T06:54:07;94785.34;;;12.15;84.74
20003;BME280;10162;41.600;23.806;2023-04-21T06:56:33;94788.22;;;12.38;85.79
20003;BME280;10162;41.600;23.806;2023-04-21T06:59:00;94790.69;;;12.58;84.23
20003;BME280;10162;41.600;23.806;2023-04-21T07:01:25;94770.59;;;12.70;82.40
20003;BME280;10162;41.600;23.806;2023-04-21T07:03:51;94779.34;;;12.39;83.15
20003;BME280;10162;41.600;23.806;2023-04-21T07:06:17;94794.72;;;12.78;83.87
20003;BME280;10162;41.600;23.806;2023-04-21T07:08:43;94776.09;;;12.87;82.19
20003;BME280;10162;41.600;23.806;2023-04-21T07:11:08;94788.50;;;13.16;81.38
20003;BME280;10162;41.600;23.806;2023-04-21T07:13:34;94777.34;;;13.57;80.99
20003;BME280;10162;41.600;23.806;2023-04-21T07:16:00;94784.13;;;13.64;80.51
20003;BME280;10162;41.600;23.806;2023-04-21T07:18:27;94769.09;;;13.53;79.36
20003;BME280;10162;41.600;23.806;2023-04-21T07:20:54;94769.69;;;13.55;78.94
20003;BME280;10162;41.600;23.806;2023-04-21T07:23:20;94780.47;;;13.65;77.82
20003;BME280;10162;41.600;23.806;2023-04-21T07:25:46;94792.31;;;13.86;76.20
20003;BME280;10162;41.600;23.806;2023-04-21T07:28:13;94786.84;;;13.40;76.41
20003;BME280;10162;41.600;23.806;2023-04-21T07:30:43;94787.34;;;14.08;76.45
20003;BME280;10162;41.600;23.806;2023-04-21T07:33:10;94781.09;;;14.21;74.15
20003;BME280;10162;41.600;23.806;2023-04-21T07:35:36;94778.50;;;14.32;74.30
20003;BME280;10162;41.600;23.806;2023-04-21T07:38:03;94771.31;;;14.28;73.02
20003;BME280;10162;41.600;23.806;2023-04-21T07:40:33;94774.34;;;14.78;72.15
20003;BME280;10162;41.600;23.806;2023-04-21T07:42:59;94771.81;;;14.60;70.67
20003;BME280;10162;41.600;23.806;2023-04-21T07:45:28;94783.44;;;14.29;69.60
20003;BME280;10162;41.600;23.806;2023-04-21T07:47:53;94757.44;;;14.74;71.55
20003;BME280;10162;41.600;23.806;2023-04-21T07:50:20;94748.72;;;14.62;71.65
20003;BME280;10162;41.600;23.806;2023-04-21T07:52:46;94766.28;;;15.31;70.10
20003;BME280;10162;41.600;23.806;2023-04-21T07:55:12;94764.03;;;15.11;69.35
20003;BME280;10162;41.600;23.806;2023-04-21T07:57:39;94762.00;;;14.78;68.92
20003;BME280;10162;41.600;23.806;2023-04-21T08:00:07;94765.03;;;15.22;68.34
20003;BME280;10162;41.600;23.806;2023-04-21T08:02:39;94766.53;;;15.18;67.79
20003;BME280;10162;41.600;23.806;2023-04-21T08:05:06;94770.66;;;15.25;69.29
20003;BME280;10162;41.600;23.806;2023-04-21T08:07:32;94756.75;;;15.42;69.49
20003;BME280;10162;41.600;23.806;2023-04-21T08:10:04;94757.88;;;15.57;67.76
20003;BME280;10162;41.600;23.806;2023-04-21T08:12:32;94759.84;;;15.79;65.62
20003;BME280;10162;41.600;23.806;2023-04-21T08:14:57;94751.59;;;15.58;68.71
20003;BME280;10162;41.600;23.806;2023-04-21T08:17:23;94759.00;;;15.90;69.03
20003;BME280;10162;41.600;23.806;2023-04-21T08:19:49;94757.88;;;16.14;68.05
20003;BME280;10162;41.600;23.806;2023-04-21T08:22:15;94723.84;;;15.84;64.05
20003;BME280;10162;41.600;23.806;2023-04-21T08:24:41;94743.00;;;16.25;64.97
20003;BME280;10162;41.600;23.806;2023-04-21T08:27:08;94731.91;;;16.23;64.01
20003;BME280;10162;41.600;23.806;2023-04-21T08:29:34;94723.56;;;16.14;60.07
20003;BME280;10162;41.600;23.806;2023-04-21T08:32:01;94727.09;;;16.36;60.47
20003;BME280;10162;41.600;23.806;2023-04-21T08:34:27;94725.91;;;16.77;57.09
20003;BME280;10162;41.600;23.806;2023-04-21T08:36:55;94731.09;;;16.89;57.71
20003;BME280;10162;41.600;23.806;2023-04-21T08:39:20;94723.19;;;17.32;55.23
20003;BME280;10162;41.600;23.806;2023-04-21T08:42:03;94710.22;;;17.09;54.52
20003;BME280;10162;41.600;23.806;2023-04-21T08:44:30;94702.84;;;16.89;52.65
20003;BME280;10162;41.600;23.806;2023-04-21T08:46:57;94722.38;;;17.10;53.45
20003;BME280;10162;41.600;23.806;2023-04-21T08:49:28;94718.22;;;17.36;51.42
20003;BME280;10162;41.600;23.806;2023-04-21T08:52:07;94713.38;;;17.06;52.00
20003;BME280;10162;41.600;23.806;2023-04-21T08:54:34;94699.03;;;17.46;53.95
20003;BME280;10162;41.600;23.806;2023-04-21T08:57:03;94688.81;;;17.54;50.95
20003;BME280;10162;41.600;23.806;2023-04-21T08:59:29;94703.03;;;17.97;51.46
20003;BME280;10162;41.600;23.806;2023-04-21T09:02:17;94708.25;;;17.87;50.66
20003;BME280;10162;41.600;23.806;2023-04-21T09:04:45;94702.03;;;18.35;48.86
20003;BME280;10162;41.600;23.806;2023-04-21T09:07:35;94714.84;;;18.48;47.29
20003;BME280;10162;41.600;23.806;2023-04-21T09:10:05;94694.63;;;18.69;46.75
20003;BME280;10162;41.600;23.806;2023-04-21T09:12:31;94695.38;;;18.59;47.52
20003;BME280;10162;41.600;23.806;2023-04-21T09:14:57;94699.09;;;18.31;46.13
20003;BME280;10162;41.600;23.806;2023-04-21T09:17:28;94694.22;;;18.87;44.70
20003;BME280;10162;41.600;23.806;2023-04-21T09:20:16;94679.03;;;18.40;44.40
20003;BME280;10162;41.600;23.806;2023-04-21T09:22:43;94684.84;;;18.37;43.82
20003;BME280;10162;41.600;23.806;2023-04-21T09:25:15;94682.09;;;18.22;44.24
20003;BME280;10162;41.600;23.806;2023-04-21T09:27:41;94681.25;;;18.53;42.73
20003;BME280;10162;41.600;23.806;2023-04-21T09:30:07;94694.16;;;18.77;40.75
20003;BME280;10162;41.600;23.806;2023-04-21T09:32:38;94658.66;;;18.73;41.71
20003;BME280;10162;41.600;23.806;2023-04-21T09:35:08;94667.56;;;19.09;39.51
20003;BME280;10162;41.600;23.806;2023-04-21T09:37:37;94641.97;;;18.72;39.04
20003;BME280;10162;41.600;23.806;2023-04-21T09:40:03;94678.50;;;19.27;43.26
20003;BME280;10162;41.600;23.806;2023-04-21T09:42:32;94673.13;;;19.07;43.47
20003;BME280;10162;41.600;23.806;2023-04-21T09:44:58;94658.69;;;18.78;42.77
20003;BME280;10162;41.600;23.806;2023-04-21T09:47:27;94661.88;;;18.43;43.56
20003;BME280;10162;41.600;23.806;2023-04-21T09:49:53;94648.94;;;18.09;45.31
20003;BME280;10162;41.600;23.806;2023-04-21T09:52:21;94645.16;;;17.73;44.20
20003;BME280;10162;41.600;23.806;2023-04-21T09:54:50;94667.19;;;17.57;43.75
20003;BME280;10162;41.600;23.806;2023-04-21T09:57:20;94668.97;;;17.73;43.22
20003;BME280;10162;41.600;23.806;2023-04-21T09:59:53;94659.16;;;17.69;43.96
20003;BME280;10162;41.600;23.806;2023-04-21T10:02:24;94637.59;;;17.33;42.79
20003;BME280;10162;41.600;23.806;2023-04-21T10:04:51;94627.78;;;17.29;42.16
20003;BME280;10162;41.600;23.806;2023-04-21T10:07:25;94661.69;;;17.86;42.50
20003;BME280;10162;41.600;23.806;2023-04-21T10:09:53;94636.03;;;18.18;40.10
20003;BME280;10162;41.600;23.806;2023-04-21T10:12:21;94643.00;;;18.34;40.77
20003;BME280;10162;41.600;23.806;2023-04-21T10:14:52;94660.09;;;19.63;37.33
20003;BME280;10162;41.600;23.806;2023-04-21T10:17:21;94656.69;;;20.18;37.40
20003;BME280;10162;41.600;23.806;2023-04-21T10:19:57;94643.16;;;19.99;37.38
20003;BME280;10162;41.600;23.806;2023-04-21T10:22:31;94643.16;;;19.94;37.22
20003;BME280;10162;41.600;23.806;2023-04-21T10:25:02;94631.47;;;19.70;37.75
20003;BME280;10162;41.600;23.806;2023-04-21T10:27:41;94641.22;;;19.49;38.69
20003;BME280;10162;41.600;23.806;2023-04-21T10:30:21;94628.00;;;18.92;36.46
20003;BME280;10162;41.600;23.806;2023-04-21T10:33:03;94626.31;;;19.33;36.76
20003;BME280;10162;41.600;23.806;2023-04-21T10:36:01;94641.75;;;19.46;38.59
20003;BME280;10162;41.600;23.806;2023-04-21T10:38:41;94636.88;;;19.13;39.37
20003;BME280;10162;41.600;23.806;2023-04-21T10:41:26;94639.38;;;18.87;39.16
20003;BME280;10162;41.600;23.806;2023-04-21T10:43:52;94623.88;;;19.11;38.29
20003;BME280;10162;41.600;23.806;2023-04-21T10:46:31;94616.06;;;19.47;37.36
20003;BME280;10162;41.600;23.806;2023-04-21T10:49:08;94631.97;;;19.47;36.93
20003;BME280;10162;41.600;23.806;2023-04-21T10:56:57;94642.84;;;19.65;36.20
20003;BME280;10162;41.600;23.806;2023-04-21T10:59:26;94620.59;;;19.71;35.83
20003;BME280;10162;41.600;23.806;2023-04-21T11:01:53;94625.38;;;19.85;36.38
20003;BME280;10162;41.600;23.806;2023-04-21T11:04:20;94636.00;;;20.20;36.65
20003;BME280;10162;41.600;23.806;2023-04-21T11:07:12;94636.25;;;19.83;35.81
20003;BME280;10162;41.600;23.806;2023-04-21T11:09:40;94641.56;;;19.83;37.52
20003;BME280;10162;41.600;23.806;2023-04-21T11:12:08;94619.28;;;19.89;35.38
20003;BME280;10162;41.600;23.806;2023-04-21T11:14:36;94625.13;;;20.11;37.01
20003;BME280;10162;41.600;23.806;2023-04-21T11:17:03;94633.31;;;20.71;33.66
20003;BME280;10162;41.600;23.806;2023-04-21T11:19:33;94625.16;;;20.32;34.06
20003;BME280;10162;41.600;23.806;2023-04-21T11:22:07;94642.09;;;20.31;33.41
20003;BME280;10162;41.600;23.806;2023-04-21T11:24:33;94630.69;;;19.79;35.00
20003;BME280;10162;41.600;23.806;2023-04-21T11:27:00;94631.22;;;19.82;35.96
20003;BME280;10162;41.600;23.806;2023-04-21T11:29:27;94623.81;;;20.09;34.79
20003;BME280;10162;41.600;23.806;2023-04-21T11:31:59;94627.66;;;19.30;35.74
20003;BME280;10162;41.600;23.806;2023-04-21T11:34:27;94612.91;;;19.80;34.53
20003;BME280;10162;41.600;23.806;2023-04-21T11:36:52;94629.41;;;20.38;34.52
20003;BME280;10162;41.600;23.806;2023-04-21T11:39:20;94623.84;;;21.14;34.14
20003;BME280;10162;41.600;23.806;2023-04-21T11:41:57;94608.81;;;20.89;32.60
20003;BME280;10162;41.600;23.806;2023-04-21T11:49:46;94612.38;;;20.29;31.73
20003;BME280;10162;41.600;23.806;2023-04-21T11:52:22;94628.69;;;21.07;33.52
20003;BME280;10162;41.600;23.806;2023-04-21T11:54:53;94624.44;;;21.06;32.86
20003;BME280;10162;41.600;23.806;2023-04-21T11:57:19;94615.41;;;21.07;34.24
20003;BME280;10162;41.600;23.806;2023-04-21T11:59:48;94616.06;;;21.37;33.41
20003;BME280;10162;41.600;23.806;2023-04-21T12:02:26;94591.66;;;20.31;34.46
20003;BME280;10162;41.600;23.806;2023-04-21T12:07:28;94605.50;;;20.07;33.11
20003;BME280;10162;41.600;23.806;2023-04-21T12:09:55;94616.06;;;20.73;34.41
20003;BME280;10162;41.600;23.806;2023-04-21T12:12:21;94594.84;;;19.57;37.11
20003;BME280;10162;41.600;23.806;2023-04-21T12:14:49;94591.41;;;19.46;37.05
20003;BME280;10162;41.600;23.806;2023-04-21T12:17:16;94573.50;;;19.06;37.38
20003;BME280;10162;41.600;23.806;2023-04-21T12:19:42;94617.00;;;19.25;37.14
20003;BME280;10162;41.600;23.806;2023-04-21T12:22:10;94594.88;;;19.72;35.81
20003;BME280;10162;41.600;23.806;2023-04-21T12:24:36;94580.56;;;20.03;35.09
20003;BME280;10162;41.600;23.806;2023-04-21T12:27:05;94586.16;;;21.07;35.50
20003;BME280;10162;41.600;23.806;2023-04-21T12:29:32;94592.47;;;20.46;35.17
20003;BME280;10162;41.600;23.806;2023-04-21T12:32:06;94601.50;;;19.85;34.06
20003;BME280;10162;41.600;23.806;2023-04-21T12:34:32;94585.84;;;20.34;33.31
20003;BME280;10162;41.600;23.806;2023-04-21T12:37:01;94589.00;;;20.51;34.62
20003;BME280;10162;41.600;23.806;2023-04-21T12:39:27;94581.38;;;21.19;34.18
20003;BME280;10162;41.600;23.806;2023-04-21T12:41:54;94590.94;;;21.10;33.70
20003;BME280;10162;41.600;23.806;2023-04-21T12:44:20;94567.09;;;21.43;32.77
20003;BME280;10162;41.600;23.806;2023-04-21T12:46:48;94583.56;;;21.90;34.02
20003;BME280;10162;41.600;23.806;2023-04-21T12:49:14;94556.72;;;22.20;32.97
20003;BME280;10162;41.600;23.806;2023-04-21T12:51:45;94555.16;;;22.43;32.21
20003;BME280;10162;41.600;23.806;2023-04-21T12:54:11;94556.00;;;22.09;30.96
20003;BME280;10162;41.600;23.806;2023-04-21T12:56:38;94560.34;;;22.82;31.41
20003;BME280;10162;41.600;23.806;2023-04-21T12:59:08;94578.97;;;22.58;31.86
20003;BME280;10162;41.600;23.806;2023-04-21T13:01:37;94574.19;;;21.63;31.42
20003;BME280;10162;41.600;23.806;2023-04-21T13:04:03;94557.13;;;21.20;34.00
20003;BME280;10162;41.600;23.806;2023-04-21T13:06:29;94563.94;;;21.41;31.16
20003;BME280;10162;41.600;23.806;2023-04-21T13:08:55;94553.28;;;22.67;31.04
20003;BME280;10162;41.600;23.806;2023-04-21T13:11:23;94569.50;;;22.71;31.32
20003;BME280;10162;41.600;23.806;2023-04-21T13:13:49;94555.81;;;21.23;31.12
20003;BME280;10162;41.600;23.806;2023-04-21T13:16:16;94559.16;;;21.38;31.84
20003;BME280;10162;41.600;23.806;2023-04-21T13:18:44;94540.03;;;22.38;30.19
20003;BME280;10162;41.600;23.806;2023-04-21T13:21:13;94550.81;;;22.76;29.07
20003;BME280;10162;41.600;23.806;2023-04-21T13:23:41;94538.09;;;23.53;29.29
20003;BME280;10162;41.600;23.806;2023-04-21T13:26:07;94552.19;;;23.16;30.42
20003;BME280;10162;41.600;23.806;2023-04-21T13:28:34;94533.44;;;22.31;31.33
20003;BME280;10162;41.600;23.806;2023-04-21T13:31:04;94543.94;;;21.49;33.24
20003;BME280;10162;41.600;23.806;2023-04-21T13:33:31;94529.25;;;21.57;31.96
20003;BME280;10162;41.600;23.806;2023-04-21T13:36:00;94543.34;;;21.96;31.68
20003;BME280;10162;41.600;23.806;2023-04-21T13:38:28;94540.03;;;21.70;32.78
20003;BME280;10162;41.600;23.806;2023-04-21T13:40:55;94549.75;;;21.02;32.96
20003;BME280;10162;41.600;23.806;2023-04-21T13:43:22;94543.25;;;21.33;32.27
20003;BME280;10162;41.600;23.806;2023-04-21T13:45:48;94539.53;;;21.34;31.62